Terminal Aerodrome Forecast
Issued by NWS Wilmington, OH

Current Version | Previous Version | Graphics & Text | Print | Product List | Glossary On
Versions: 1 2 3 4 5 6 7 8 9 10 11 12 13 14 15 16 17 18 19 20 21 22 23 24 25 26 27 28 29 30
486
FTUS41 KILN 151456 AAA
TAFCVG
TAF AMD
KCVG 151456Z 1515/1618 04005KT 3SM BR OVC008
     FM151800 06006KT P6SM VCSH OVC040
     FM160000 07005KT P6SM VCSH SCT006 OVC035
     FM160400 06006KT 4SM BR OVC006
     FM161400 11006KT P6SM BKN010=

USA.gov is the U.S. government's official web portal to all federal, state and local government web resources and services.